Flight Track Log - Related Links

Times and Time Zones

All times are in EDT time to prevent confusion due to time zone crossing. See the N363SR flight status page for this flight to view local times or setup timezone preferences in your user account.

Time Position Orientation Groundspeed Altitude Reporting Facility
EDT Latitude Longitude Course Direction KTS MPH feet Rate Location/Type
Fri 04:21:02 PM 41.1489 -100.7261 270° West 120 138 4,800  Level Denver Center
Fri 04:22:00 PM 41.1167 -101.0140 270° West  Level FlightAware Approximate
Fri 04:22:05 PM 41.1492 -100.7694 271° West 122 140 5,300  Level Denver Center
Fri 04:23:00 PM 41.1167 -101.0692 270° West  Level FlightAware Approximate
Fri 04:23:07 PM 41.1467 -100.8233 266° West 128 147 5,900  Level Denver Center
Fri 04:24:00 PM 41.1167 -101.1243 270° West  Level FlightAware Approximate
Fri 04:24:09 PM 41.1475 -100.8711 271° West 132 152 6,400  Level Denver Center
Fri 04:25:00 PM 41.1167 -101.1794 270° West  Level FlightAware Approximate
Fri 04:25:11 PM 41.1464 -100.9272 269° West 135 155 6,900  Level Denver Center
Fri 04:26:00 PM 41.1167 -101.2345 270° West  Level FlightAware Approximate
Fri 04:26:13 PM 41.1450 -100.9739 268° West 134 154 7,400  Level Denver Center
Fri 04:27:15 PM 41.1447 -101.0278 270° West 133 153 7,900 387 Climbing Denver Center
Fri 04:28:17 PM 41.1436 -101.0744 268° West 132 152 8,200 339 Climbing Denver Center
Fri 04:29:19 PM 41.1431 -101.1303 269° West 134 154 8,600 339 Climbing Denver Center
Fri 04:30:21 PM 41.1453 -101.1781 274° West 136 157 8,900 339 Climbing Denver Center
Fri 04:31:23 PM 41.1675 -101.2275 301° West 139 160 9,300 339 Climbing Denver Center
Fri 04:32:25 PM 41.1825 -101.2719 294° West 137 158 9,600 290 Climbing Denver Center
Fri 04:33:27 PM 41.1989 -101.3236 293° West 137 158 9,900 290 Climbing Denver Center
Fri 04:34:29 PM 41.2133 -101.3675 294° West 137 158 10,200 339 Climbing Denver Center
Fri 04:35:31 PM 41.2317 -101.4181 296° West 136 157 10,600 293 Climbing Denver Center
Fri 04:36:32 PM 41.2436 -101.4550 293° West 136 157 10,800 293 Climbing Denver Center
Fri 04:37:34 PM 41.2633 -101.5139 294° West 136 157 11,200 339 Climbing Denver Center
Fri 04:38:36 PM 41.2783 -101.5578 294° West 136 157 11,500 290 Climbing Denver Center
Fri 04:39:38 PM 41.2925 -101.6019 293° West 136 157 11,800 242 Climbing Denver Center
Fri 04:40:40 PM 41.3103 -101.6528 295° West 135 155 12,000 97 Climbing Denver Center
Fri 04:41:42 PM 41.3256 -101.6983 294° West 139 160 12,000  Level Denver Center
Fri 04:42:44 PM 41.3442 -101.7564 293° West 152 175 12,000  Level Denver Center
Fri 04:43:46 PM 41.3606 -101.8058 294° West 153 176 12,000  Level Denver Center
Fri 04:44:48 PM 41.3808 -101.8658 294° West 157 181 12,000  Level Denver Center
Fri 04:45:50 PM 41.3975 -101.9172 293° West 158 182 12,000  Level Denver Center
Fri 04:46:52 PM 41.4169 -101.9769 293° West 158 182 12,000  Level Denver Center
Fri 04:47:54 PM 41.4369 -102.0275 298° West 161 185 12,000  Level Denver Center
Fri 04:48:56 PM 41.4619 -102.0861 300° West 162 186 12,000  Level Denver Center
Fri 04:49:58 PM 41.4933 -102.1289 314° West 166 191 12,000  Level Denver Center
Fri 04:50:59 PM 41.5250 -102.1714 315° West 168 193 12,000  Level Denver Center
Fri 04:52:01 PM 41.5597 -102.2214 313° West 166 191 12,000  Level Denver Center
Fri 04:53:03 PM 41.5894 -102.2644 313° West 164 189 12,000  Level Denver Center
Fri 04:54:05 PM 41.6247 -102.3136 314° West 165 190 12,000  Level Denver Center
Fri 04:55:07 PM 41.6547 -102.3547 314° West 163 188 12,000  Level Denver Center
Fri 04:56:09 PM 41.6908 -102.4025 315° West 162 186 12,000  Level Denver Center
Fri 04:57:11 PM 41.7206 -102.4467 312° West 166 191 12,000  Level Denver Center
Fri 04:58:13 PM 41.7533 -102.4975 311° West 163 188 12,000  Level Denver Center
Fri 04:59:15 PM 41.7825 -102.5417 312° West 164 189 12,000  Level Denver Center
Fri 05:00:17 PM 41.8153 -102.5900 312° West 161 185 12,000  Level Denver Center
Fri 05:02:21 PM 41.8567 -102.6911 299° West 149 171 12,000  Level Denver Center
Fri 05:03:23 PM 41.8728 -102.7378 295° West 147 169 12,000  Level Denver Center
Fri 05:04:25 PM 41.8900 -102.7883 295° West 153 176 12,000  Level Denver Center
Fri 05:05:27 PM 41.9103 -102.8469 295° West 155 178 12,000  Level Denver Center
Fri 05:06:29 PM 41.9303 -102.8992 297° West 158 182 12,000  Level Denver Center
Fri 05:07:31 PM 41.9492 -102.9572 294° West 155 178 12,000  Level Denver Center
Fri 05:08:33 PM 41.9675 -103.0056 297° West 153 176 12,000  Level Denver Center
Fri 05:09:35 PM 41.9878 -103.0653 295° West 156 180 12,000  Level Denver Center
Fri 05:10:37 PM 42.0053 -103.1144 296° West 154 177 12,000  Level Denver Center
Fri 05:11:39 PM 42.0228 -103.1642 295° West 153 176 12,000  Level Denver Center
Fri 05:12:54 PM 42.0372 -103.2408 284° West 148 170 12,000  Level Denver Center
Fri 05:13:56 PM 42.0356 -103.2928 268° West 144 166 12,000 -48 Level Denver Center
Fri 05:14:58 PM 42.0361 -103.3514 271° West 142 163 11,900  Descending Denver Center
Fri 05:16:12 PM 42.0378 -103.3997 273° West 139 160 12,000  Climbing Denver Center
Fri 05:17:14 PM 42.0472 -103.4533 283° West 126 145 11,900 -144 Descending Denver Center
Fri 05:18:17 PM 42.0492 -103.4906 274° West 112 129 11,700 48 Descending Denver Center
Fri 05:19:19 PM 42.0458 -103.5414 265° West 114 131 12,000 48 Climbing Denver Center
Fri 05:20:21 PM 42.0456 -103.5917 270° West 127 146 11,800 -290 Descending Denver Center
Fri 05:21:23 PM 42.0553 -103.6503 283° West 140 161 11,400 -194 Descending Denver Center
Fri 05:22:25 PM 42.0581 -103.6986 274° West 137 158 11,400 -97 Level Denver Center
Fri 05:23:27 PM 42.0586 -103.7547 271° West 135 155 11,200 -194 Descending Denver Center
Fri 05:24:29 PM 42.0633 -103.8072 277° West 141 162 11,000 -97 Descending Denver Center
Fri 05:25:31 PM 42.0719 -103.8683 281° West 146 168 11,000  Level Denver Center
Fri 05:26:33 PM 42.0769 -103.9208 277° West 147 169 11,000  Level Denver Center
Fri 05:27:35 PM 42.0819 -103.9725 277° West 147 169 11,000  Level Denver Center
Fri 05:28:37 PM 42.0897 -104.0331 280° West 147 169 11,000  Level Denver Center
Fri 05:29:39 PM 42.0947 -104.0847 277° West 146 168 11,000  Level Denver Center
Fri 05:30:41 PM 42.1011 -104.1453 278° West 146 168 11,000  Level Denver Center
Fri 05:31:43 PM 42.1061 -104.1961 278° West 145 167 11,000  Level Denver Center
Fri 05:32:45 PM 42.1147 -104.2561 281° West 145 167 11,000 194 Level Denver Center
Fri 05:33:47 PM 42.1192 -104.3050 277° West 142 163 11,400 339 Climbing Denver Center
Fri 05:34:49 PM 42.1239 -104.3528 278° West 128 147 11,700 290 Climbing Denver Center
Fri 05:35:51 PM 42.1281 -104.3914 278° West 117 135 12,000 144 Climbing Denver Center
Fri 05:36:54 PM 42.1339 -104.4408 279° West 116 133 12,000  Level Denver Center
Fri 05:37:56 PM 42.1383 -104.4861 278° West 122 140 12,000  Level Denver Center
Fri 05:38:58 PM 42.1497 -104.5392 286° West 128 147 12,000  Level Denver Center
Fri 05:40:00 PM 42.1642 -104.5819 295° West 130 150 12,000  Level Denver Center
Fri 05:41:02 PM 42.1750 -104.6250 289° West 129 148 12,000  Level Denver Center
Fri 05:42:04 PM 42.1875 -104.6792 287° West 131 151 12,000  Level Denver Center
Fri 05:43:18 PM 42.1978 -104.7247 287° West 133 153 12,000  Level Denver Center
Fri 05:44:20 PM 42.2106 -104.7833 286° West 130 150 12,000  Level Denver Center
Fri 05:45:22 PM 42.2222 -104.8369 286° West 131 151 12,000  Level Denver Center
Fri 05:46:25 PM 42.2314 -104.8844 285° West 134 154 12,000 96 Level Denver Center
Fri 05:47:27 PM 42.2394 -104.9317 283° West 135 155 12,200 145 Climbing Denver Center
Fri 05:48:29 PM 42.2494 -104.9872 284° West 135 155 12,300 44 Climbing Denver Center
Fri 05:49:43 PM 42.2664 -105.0464 291° West 133 153 12,300 44 Level Denver Center
Fri 05:50:45 PM 42.2822 -105.0897 296° West 133 153 12,400  Climbing Denver Center
Fri 05:51:47 PM 42.3050 -105.1303 307° West 137 158 12,300 -44 Descending Denver Center
Fri 05:53:01 PM 42.3353 -105.1761 312° West 143 165 12,300  Level Denver Center
Fri 05:54:04 PM 42.3758 -105.2250 318° Northwest 151 174 12,300  Level Denver Center
Fri 05:55:06 PM 42.4025 -105.2672 311° West 153 176 12,300  Level Denver Center
Fri 05:56:08 PM 42.4344 -105.3142 313° West 152 175 12,300  Level Denver Center
Fri 05:57:10 PM 42.4644 -105.3567 314° West 156 180 12,300 -132 Level Denver Center
Fri 05:58:24 PM 42.5022 -105.4106 314° West 166 191 12,000 -132 Descending Denver Center
Fri 05:59:26 PM 42.5372 -105.4608 313° West 166 191 12,000  Level Denver Center
Fri 06:00:28 PM 42.5706 -105.5103 312° West 162 186 12,000  Level Denver Center
Fri 06:01:30 PM 42.5933 -105.5458 311° West 160 184 12,000  Level Denver Center
Fri 06:02:32 PM 42.6303 -105.5986 314° West 154 177 12,000  Level Denver Center
Fri 06:03:34 PM 42.6583 -105.6347 317° Northwest 150 173 12,000  Level Denver Center
Fri 06:04:36 PM 42.6872 -105.6822 310° West 147 169 12,000  Level Denver Center
Fri 06:05:39 PM 42.7139 -105.7206 313° West 146 168 12,000  Level Denver Center
Fri 06:06:41 PM 42.7467 -105.7672 314° West 148 170 12,000  Level Denver Center
Fri 06:07:43 PM 42.7767 -105.8092 314° West 156 180 12,000  Level Denver Center
Fri 06:08:45 PM 42.8089 -105.8581 312° West 157 181 12,000  Level Denver Center
Fri 06:09:47 PM 42.8364 -105.8997 312° West 156 180 12,000  Level Denver Center
Fri 06:10:49 PM 42.8644 -105.9389 314° West 153 176 12,000  Level Denver Center
Fri 06:11:51 PM 42.8972 -105.9886 312° West 155 178 12,000  Level Denver Center
Fri 06:12:53 PM 42.9264 -106.0269 316° Northwest 154 177 12,000  Level Denver Center
Fri 06:13:55 PM 42.9594 -106.0792 311° West 159 183 12,000  Level Denver Center
Fri 06:14:57 PM 42.9886 -106.1194 315° West 157 181 12,000  Level Denver Center
Fri 06:15:59 PM 43.0217 -106.1667 314° West 155 178 12,000  Level Denver Center
Fri 06:17:01 PM 43.0492 -106.2075 313° West 154 177 12,000  Level Denver Center
Fri 06:18:03 PM 43.0797 -106.2581 310° West 154 177 12,000  Level Denver Center
Fri 06:19:05 PM 43.1003 -106.3028 302° West 152 175 12,000  Level Denver Center
Fri 06:20:07 PM 43.0922 -106.3672 260° West 153 176 12,000  Level Denver Center
Fri 06:21:10 PM 43.0928 -106.4217 271° West 151 174 12,000  Level Denver Center
Fri 06:22:12 PM 43.0925 -106.4758 270° West 150 173 12,000  Level Denver Center
Fri 06:23:14 PM 43.0917 -106.5394 269° West 150 173 12,000  Level Denver Center
Fri 06:24:16 PM 43.0925 -106.6019 271° West 149 171 12,000  Level Denver Center
Fri 06:25:18 PM 43.0939 -106.6458 272° West 148 170 12,000  Level Denver Center
Fri 06:26:20 PM 43.0917 -106.7178 268° West 148 170 12,000  Level Denver Center
Fri 06:27:22 PM 43.0928 -106.7747 272° West 153 176 12,000  Level Denver Center
Fri 06:28:24 PM 43.0917 -106.8314 268° West 155 178 12,000  Level Denver Center
Fri 06:29:26 PM 43.0914 -106.8933 270° West 151 174 12,000  Level Denver Center
Fri 06:30:23 PM 43.0914 -106.9478 270° West 148 170 12,000  Level Salt Lake Center
Fri 06:31:25 PM 43.0911 -106.9981 270° West 145 167 12,000  Level Salt Lake Center
Fri 06:32:26 PM 43.0894 -107.0597 268° West 143 165 12,000 -49 Level Salt Lake Center
Fri 06:33:28 PM 43.0894 -107.1158 270° West 147 169 11,900  Descending Salt Lake Center
Fri 06:34:36 PM 43.0867 -107.1769 266° West 148 170 12,000 46 Climbing Denver Center
Fri 06:35:38 PM 43.0878 -107.2358 272° West 143 165 12,000  Level Denver Center
Fri 06:36:40 PM 43.0850 -107.2856 266° West 139 160 12,000  Level Denver Center
Fri 06:37:42 PM 43.0867 -107.3367 273° West 139 160 12,000  Level Denver Center
Fri 06:38:36 PM 43.0853 -107.3883 268° West 139 160 12,000  Level Salt Lake Center
Fri 06:39:38 PM 43.0842 -107.4461 269° West 140 161 12,000  Level Salt Lake Center
Fri 06:40:39 PM 43.0836 -107.4967 269° West 140 161 12,000  Level Salt Lake Center
Fri 06:41:41 PM 43.0853 -107.5575 272° West 141 162 12,000  Level Salt Lake Center
Fri 06:42:42 PM 43.0836 -107.6072 267° West 141 162 12,000  Level Salt Lake Center
Fri 06:43:44 PM 43.0814 -107.6658 267° West 139 160 12,000  Level Salt Lake Center
Fri 06:44:46 PM 43.0819 -107.7158 271° West 138 159 12,000  Level Salt Lake Center
Fri 06:45:47 PM 43.0778 -107.7775 265° West 141 162 12,000  Level Salt Lake Center
Fri 06:46:49 PM 43.0786 -107.8300 271° West 143 165 12,000 49 Level Salt Lake Center
Fri 06:47:50 PM 43.0794 -107.8844 271° West 145 167 12,100  Climbing Salt Lake Center
Fri 06:48:52 PM 43.0794 -107.9461 270° West 146 168 12,000 -49 Descending Salt Lake Center
Fri 06:49:53 PM 43.0786 -108.0006 269° West 148 170 12,000  Level Salt Lake Center
Fri 06:50:55 PM 43.0747 -108.0617 265° West 147 169 12,000  Level Salt Lake Center
Fri 06:51:56 PM 43.0744 -108.1108 270° West 143 165 12,000  Level Salt Lake Center
Fri 06:52:58 PM 43.0736 -108.1650 269° West 136 157 12,000  Level Salt Lake Center
Fri 06:54:00 PM 43.0719 -108.2122 267° West 133 153 12,000  Level Salt Lake Center
Fri 06:55:01 PM 43.0717 -108.2592 270° West 131 151 12,000  Level Salt Lake Center
Fri 06:56:03 PM 43.0708 -108.3150 269° West 131 151 12,000 -49 Level Salt Lake Center
Fri 06:57:04 PM 43.0700 -108.3614 269° West 130 150 11,900  Descending Salt Lake Center
Fri 06:58:06 PM 43.0672 -108.4183 266° West 131 151 12,000 49 Climbing Salt Lake Center
Fri 06:59:07 PM 43.0747 -108.4764 280° West 153 176 12,000  Level Salt Lake Center
Fri 07:00:09 PM 43.1003 -108.5328 302° West 156 180 12,000  Level Salt Lake Center
Fri 07:01:10 PM 43.1164 -108.5842 293° West 157 181 12,000  Level Salt Lake Center
Fri 07:03:00 PM 43.1478 -108.6767 295° West  Level FlightAware Approximate
Fri 07:10:00 PM 43.2921 -109.0142 301° West  Level FlightAware Approximate
Fri 07:11:00 PM 43.3126 -109.0623 300° West  Level FlightAware Approximate
Fri 07:12:00 PM 43.3332 -109.1105 300° West  Level FlightAware Approximate
Fri 07:13:00 PM 43.3536 -109.1587 299° West  Level FlightAware Approximate
Fri 07:14:00 PM 43.3735 -109.2074 299° West  Level FlightAware Approximate
Fri 07:15:00 PM 43.3934 -109.2561 299° West  Level FlightAware Approximate
Fri 07:16:00 PM 43.4133 -109.3048 299° West  Level FlightAware Approximate
Fri 07:17:00 PM 43.4332 -109.3536 299° West  Level FlightAware Approximate
Fri 07:18:00 PM 43.4531 -109.4023 299° West  Level FlightAware Approximate
Fri 07:19:00 PM 43.4729 -109.4511 299° West  Level FlightAware Approximate
Fri 07:20:00 PM 43.4927 -109.5000 299° West  Level FlightAware Approximate
Fri 07:21:00 PM 43.5125 -109.5489 299° West  Level FlightAware Approximate
Fri 07:22:00 PM 43.5323 -109.5978 299° West  Level FlightAware Approximate
Fri 07:23:00 PM 43.5520 -109.6467 299° West  Level FlightAware Approximate
Fri 07:24:00 PM 43.5718 -109.6957 299° West  Level FlightAware Approximate
Fri 07:25:00 PM 43.5915 -109.7447 299° West  Level FlightAware Approximate
Fri 07:26:00 PM 43.6111 -109.7938 299° West  Level FlightAware Approximate
Fri 07:27:00 PM 43.6308 -109.8428 299° West  Level FlightAware Approximate
Fri 07:28:00 PM 43.6505 -109.8919 299° West  Level FlightAware Approximate
Fri 07:29:00 PM 43.6701 -109.9411 299° West  Level FlightAware Approximate
Fri 07:30:00 PM 43.6897 -109.9902 299° West  Level FlightAware Approximate
Fri 07:31:00 PM 43.7093 -110.0395 299° West  Level FlightAware Approximate
Fri 07:32:00 PM 43.7288 -110.0887 299° West  Level FlightAware Approximate
Fri 07:33:00 PM 43.7474 -110.1386 297° West  Level FlightAware Approximate
Fri 07:34:00 PM 43.7657 -110.1888 297° West  Level FlightAware Approximate
Fri 07:35:00 PM 43.7839 -110.2391 297° West  Level FlightAware Approximate
Fri 07:36:00 PM 43.8020 -110.2894 295° West  Level FlightAware Approximate
Fri 07:37:00 PM 43.8129 -110.3393 229° Southwest  Level FlightAware Approximate
Fri 07:38:00 PM 43.7864 -110.3819 229° Southwest  Level FlightAware Approximate
Fri 07:39:00 PM 43.7598 -110.4244 229° Southwest  Level FlightAware Approximate
Fri 07:40:00 PM 43.7332 -110.4669 235° Southwest  Level FlightAware Approximate
Fri 07:41:00 PM 43.7102 -110.5132 235° Southwest  Level FlightAware Approximate
Fri 07:42:00 PM 43.6871 -110.5594 235° Southwest  Level FlightAware Approximate
Fri 07:43:00 PM 43.6640 -110.6056 235° Southwest  Level FlightAware Approximate
Fri 07:44:00 PM 43.6409 -110.6517 235° Southwest  Level FlightAware Approximate
Fri 07:45:00 PM 43.6178 -110.6978 235° Southwest  Level FlightAware Approximate
Fri 07:46:00 PM 43.6000 -110.7333 235° Southwest  Level FlightAware Approximate
Fri 07:47:00 PM 43.6073 -110.7377 235° Southwest  Level Estimated
Fri 07:48:00 PM 43.6073 -110.7377 235° Southwest  Level Estimated
Fri 07:49:00 PM 43.6073 -110.7377 235° Southwest  Level Estimated
Fri 07:50:00 PM 43.6073 -110.7377 235° Southwest  Level Estimated
Fri 07:51:00 PM 43.6073 -110.7377 235° Southwest  Level Estimated
Fri 07:52:00 PM 43.6073 -110.7377 235° Southwest  Level Estimated
Fri 07:53:00 PM 43.6073 -110.7377 235° Southwest  Level Estimated
Fri 07:54:00 PM 43.6073 -110.7377 235° Southwest  Level Estimated
Fri 07:55:00 PM 43.6073 -110.7377 235° Southwest  Level Estimated
Fri 07:56:00 PM 43.6073 -110.7377 235° Southwest  Level Estimated
Fri 07:57:00 PM 43.6073 -110.7377 235° Southwest  Level Estimated
Fri 07:58:00 PM 43.6073 -110.7377 235° Southwest  Level Estimated

Login

Don't have an account? Register now (free) for customized features, flight alerts, and more!